createdAt,value
2022-10-09T00:01:10.369Z,8.60
2022-10-09T00:06:26.505Z,8.10
2022-10-09T00:11:32.781Z,8.40
2022-10-09T00:16:38.422Z,8.50
2022-10-09T00:21:44.565Z,8.60
2022-10-09T00:26:49.947Z,8.70
2022-10-09T00:31:54.919Z,8.70
2022-10-09T00:37:00.816Z,8.60
2022-10-09T00:42:06.124Z,8.70
2022-10-09T00:47:15.377Z,8.70
2022-10-09T00:52:22.486Z,8.80
2022-10-09T00:57:28.307Z,8.60
2022-10-09T01:02:34.143Z,8.60
2022-10-09T01:07:41.499Z,8.60
2022-10-09T01:12:55.173Z,8.60
2022-10-09T01:18:06.479Z,8.50
2022-10-09T01:23:24.429Z,8.40
2022-10-09T01:28:32.101Z,8.20
2022-10-09T01:33:39.711Z,8.20
2022-10-09T01:38:45.798Z,7.80
2022-10-09T01:43:51.877Z,7.50
2022-10-09T01:49:00.191Z,7.10
2022-10-09T01:54:09.055Z,7.00
2022-10-09T01:59:17.402Z,7.10
2022-10-09T02:04:24.077Z,6.90
2022-10-09T02:09:31.091Z,6.90
2022-10-09T02:14:37.414Z,6.30
2022-10-09T02:19:54.369Z,6.40
2022-10-09T02:25:02.706Z,6.20
2022-10-09T02:30:12.716Z,6.40
2022-10-09T02:35:17.953Z,5.90
2022-10-09T02:40:23.010Z,6.00
2022-10-09T02:45:28.365Z,5.90
2022-10-09T02:50:34.098Z,6.10
2022-10-09T02:55:39.487Z,6.10
2022-10-09T03:00:46.438Z,6.20
2022-10-09T03:06:04.236Z,6.20
2022-10-09T03:11:12.631Z,5.80
2022-10-09T03:16:21.637Z,5.90
2022-10-09T03:21:28.118Z,5.60
2022-10-09T03:26:34.067Z,5.10
2022-10-09T03:31:51.753Z,5.30
2022-10-09T03:36:46.935Z,5.20
2022-10-09T03:41:51.886Z,5.40
2022-10-09T03:46:58.007Z,4.80
2022-10-09T03:52:03.217Z,5.20
2022-10-09T03:57:10.580Z,5.30
2022-10-09T04:02:16.345Z,5.40
2022-10-09T04:07:21.446Z,5.60
2022-10-09T04:12:26.906Z,5.80
2022-10-09T04:17:32.671Z,5.70
2022-10-09T04:22:37.834Z,5.60
2022-10-09T04:27:43.864Z,5.60
2022-10-09T04:32:49.597Z,5.50
2022-10-09T04:37:55.825Z,5.50
2022-10-09T04:43:00.702Z,5.50
2022-10-09T04:48:07.749Z,5.30
2022-10-09T04:53:15.100Z,5.60
2022-10-09T04:58:21.787Z,5.50
2022-10-09T05:03:27.735Z,5.50
2022-10-09T05:08:33.528Z,5.50
2022-10-09T05:13:41.458Z,5.60
2022-10-09T05:18:49.935Z,5.60
2022-10-09T05:23:57.087Z,5.70
2022-10-09T05:29:02.749Z,5.30
2022-10-09T05:34:07.988Z,5.50
2022-10-09T05:39:13.382Z,5.60
2022-10-09T05:44:18.961Z,5.80
2022-10-09T05:49:24.183Z,6.00
2022-10-09T05:54:29.951Z,6.10
2022-10-09T05:59:35.412Z,5.70
2022-10-09T06:04:42.018Z,5.90
2022-10-09T06:09:47.769Z,5.90
2022-10-09T06:14:52.558Z,6.20
2022-10-09T06:19:57.767Z,6.30
2022-10-09T06:25:03.338Z,6.50
2022-10-09T06:30:09.545Z,6.50
2022-10-09T06:35:14.561Z,6.80
2022-10-09T06:40:20.605Z,6.90
2022-10-09T06:45:26.309Z,6.90
2022-10-09T06:50:31.313Z,6.90
2022-10-09T06:55:37.495Z,7.00
2022-10-09T07:00:42.480Z,7.10
2022-10-09T07:05:47.327Z,6.90
2022-10-09T07:10:52.498Z,7.30
2022-10-09T07:16:01.331Z,7.80
2022-10-09T07:21:06.438Z,8.30
2022-10-09T07:26:14.806Z,8.90
2022-10-09T07:31:21.070Z,9.50
2022-10-09T07:36:27.636Z,10.00
2022-10-09T07:41:32.825Z,10.40
2022-10-09T07:46:38.279Z,10.70
2022-10-09T07:51:43.605Z,10.80
2022-10-09T07:56:49.722Z,11.30
2022-10-09T08:01:55.750Z,11.60
2022-10-09T08:07:01.228Z,12.20
2022-10-09T08:12:06.886Z,12.40
2022-10-09T08:17:12.181Z,12.90
2022-10-09T08:22:17.609Z,13.20
2022-10-09T08:27:22.787Z,13.20
2022-10-09T08:32:27.695Z,13.00
2022-10-09T08:37:33.062Z,13.40
2022-10-09T08:42:47.816Z,13.80
2022-10-09T08:47:56.756Z,14.30
2022-10-09T08:53:05.357Z,14.80
2022-10-09T08:58:14.444Z,14.90
2022-10-09T09:03:37.788Z,14.10
2022-10-09T09:08:58.788Z,13.50
2022-10-09T09:14:22.090Z,12.40
2022-10-09T09:19:57.355Z,13.50
2022-10-09T09:25:05.402Z,14.00
2022-10-09T09:30:21.224Z,14.70
2022-10-09T09:36:00.223Z,14.50
2022-10-09T09:41:06.628Z,15.40
2022-10-09T09:46:18.340Z,15.50
2022-10-09T09:51:29.717Z,15.70
2022-10-09T09:57:06.828Z,15.90
2022-10-09T10:01:47.046Z,16.10
2022-10-09T10:06:52.343Z,16.30
2022-10-09T10:12:03.841Z,17.00
2022-10-09T10:17:16.345Z,16.40
2022-10-09T10:22:29.360Z,15.20
2022-10-09T10:27:59.759Z,16.50
2022-10-09T10:33:10.502Z,16.00
2022-10-09T10:38:19.322Z,16.70
2022-10-09T10:43:48.706Z,16.40
2022-10-09T10:48:54.780Z,16.00
2022-10-09T10:54:03.296Z,15.60
2022-10-09T10:59:29.888Z,15.70
2022-10-09T11:04:50.113Z,15.90
2022-10-09T11:10:06.880Z,16.30
2022-10-09T11:15:37.933Z,15.90
2022-10-09T11:21:03.625Z,16.10
2022-10-09T11:26:23.956Z,16.60
2022-10-09T11:31:42.209Z,15.80
2022-10-09T11:36:48.452Z,16.60
2022-10-09T11:41:55.502Z,16.00
2022-10-09T11:47:09.676Z,16.50
2022-10-09T11:52:30.235Z,17.10
2022-10-09T11:57:37.619Z,16.30
2022-10-09T12:02:44.529Z,16.20
2022-10-09T12:07:50.301Z,16.40
2022-10-09T12:12:58.936Z,15.60
2022-10-09T12:18:06.868Z,15.10
2022-10-09T12:23:29.015Z,15.80
2022-10-09T12:28:37.281Z,16.30
2022-10-09T12:33:49.146Z,16.20
2022-10-09T12:38:54.218Z,16.30
2022-10-09T12:44:00.692Z,16.10
2022-10-09T12:49:09.317Z,16.70
2022-10-09T12:54:16.807Z,16.80
2022-10-09T12:59:23.780Z,17.00
2022-10-09T13:04:31.837Z,16.30
2022-10-09T13:09:40.850Z,15.30
2022-10-09T13:14:50.246Z,15.90
2022-10-09T13:20:00.325Z,16.20
2022-10-09T13:25:06.433Z,16.00
2022-10-09T13:30:12.953Z,15.40
2022-10-09T13:35:19.307Z,15.90
2022-10-09T13:40:25.156Z,15.40
2022-10-09T13:45:30.548Z,15.30
2022-10-09T13:50:36.154Z,15.70
2022-10-09T13:55:42.124Z,15.40
2022-10-09T14:00:46.767Z,15.20
2022-10-09T14:05:53.677Z,14.90
2022-10-09T14:11:01.944Z,15.00
2022-10-09T14:16:08.076Z,14.80
2022-10-09T14:21:15.859Z,14.70
2022-10-09T14:26:21.551Z,14.70
2022-10-09T14:31:27.700Z,14.70
2022-10-09T14:36:33.712Z,14.60
2022-10-09T14:41:38.857Z,14.50
2022-10-09T14:46:43.805Z,14.20
2022-10-09T14:51:48.856Z,14.00
2022-10-09T14:56:55.759Z,14.00
2022-10-09T15:02:00.906Z,13.90
2022-10-09T15:07:06.267Z,13.80
2022-10-09T15:12:12.035Z,13.70
2022-10-09T15:17:17.087Z,13.40
2022-10-09T15:22:22.114Z,13.40
2022-10-09T15:27:27.494Z,13.20
2022-10-09T15:32:33.776Z,13.00
2022-10-09T15:37:40.640Z,12.80
2022-10-09T15:42:48.087Z,12.80
2022-10-09T15:47:55.999Z,12.50
2022-10-09T15:53:03.735Z,12.50
2022-10-09T15:58:11.054Z,12.10
2022-10-09T16:03:19.020Z,11.80
2022-10-09T16:08:24.978Z,11.90
2022-10-09T16:13:30.621Z,11.80
2022-10-09T16:18:36.143Z,11.50
2022-10-09T16:23:43.653Z,11.20
2022-10-09T16:28:50.315Z,11.10
2022-10-09T16:33:56.985Z,11.10
2022-10-09T16:39:03.594Z,11.10
2022-10-09T16:44:14.326Z,10.40
2022-10-09T16:49:25.226Z,10.50
2022-10-09T16:54:32.493Z,10.10
2022-10-09T16:59:37.543Z,9.70
2022-10-09T17:04:44.134Z,9.80
2022-10-09T17:09:50.719Z,9.30
2022-10-09T17:14:58.330Z,9.60
2022-10-09T17:20:04.820Z,9.70
2022-10-09T17:25:14.470Z,9.60
2022-10-09T17:30:20.962Z,9.40
2022-10-09T17:35:27.140Z,9.10
2022-10-09T17:40:39.222Z,9.00
2022-10-09T17:45:47.186Z,9.10
2022-10-09T17:50:54.965Z,9.20
2022-10-09T17:56:03.939Z,9.20
2022-10-09T18:01:12.620Z,9.10
2022-10-09T18:06:23.256Z,8.80
2022-10-09T18:11:30.173Z,8.60
2022-10-09T18:16:38.796Z,8.60
2022-10-09T18:21:50.415Z,8.80
2022-10-09T18:26:56.341Z,8.60
2022-10-09T18:32:03.053Z,8.30
2022-10-09T18:37:09.095Z,8.20
2022-10-09T18:42:15.032Z,7.80
2022-10-09T18:47:26.142Z,7.50
2022-10-09T18:52:32.172Z,7.50
2022-10-09T18:57:41.534Z,7.80
2022-10-09T19:02:47.261Z,8.00
2022-10-09T19:07:54.602Z,8.30
2022-10-09T19:13:00.878Z,8.30
2022-10-09T19:18:08.181Z,8.50
2022-10-09T19:23:15.204Z,8.50
2022-10-09T19:28:22.024Z,8.60
2022-10-09T19:33:29.435Z,8.60
2022-10-09T19:38:36.682Z,7.90
2022-10-09T19:43:42.592Z,7.80
2022-10-09T19:48:47.602Z,7.60
2022-10-09T19:53:55.731Z,7.40
2022-10-09T19:59:03.692Z,7.30
2022-10-09T20:04:11.960Z,7.30
2022-10-09T20:09:18.020Z,7.00
2022-10-09T20:14:26.824Z,7.00
2022-10-09T20:19:31.854Z,6.60
2022-10-09T20:24:37.202Z,6.70
2022-10-09T20:29:43.376Z,6.80
2022-10-09T20:34:50.276Z,6.90
2022-10-09T20:39:55.985Z,6.70
2022-10-09T20:45:02.017Z,6.60
2022-10-09T20:50:08.295Z,6.50
2022-10-09T20:55:13.653Z,6.40
2022-10-09T21:00:18.541Z,6.60
2022-10-09T21:05:23.746Z,6.70
2022-10-09T21:10:30.218Z,7.60
2022-10-09T21:15:38.274Z,7.30
2022-10-09T21:20:44.175Z,6.60
2022-10-09T21:25:54.922Z,6.30
2022-10-09T21:31:00.385Z,7.10
2022-10-09T21:36:10.655Z,6.50
2022-10-09T21:41:16.426Z,6.10
2022-10-09T21:46:22.643Z,6.20
2022-10-09T21:51:28.778Z,5.80
2022-10-09T21:56:34.649Z,5.80
2022-10-09T22:01:39.813Z,5.70
2022-10-09T22:06:44.961Z,5.60
2022-10-09T22:11:50.734Z,5.70
2022-10-09T22:16:55.675Z,5.80
2022-10-09T22:22:00.932Z,5.60
2022-10-09T22:27:07.396Z,5.80
2022-10-09T22:32:14.414Z,6.10
2022-10-09T22:37:19.673Z,5.80
2022-10-09T22:42:25.300Z,6.20
2022-10-09T22:47:30.173Z,6.20
2022-10-09T22:52:35.036Z,6.90
2022-10-09T22:57:40.184Z,6.70
2022-10-09T23:02:45.068Z,5.90
2022-10-09T23:07:50.804Z,6.20
2022-10-09T23:12:55.852Z,5.90
2022-10-09T23:18:01.044Z,6.00
2022-10-09T23:23:07.594Z,5.90
2022-10-09T23:28:13.324Z,5.80
2022-10-09T23:33:18.923Z,6.00
2022-10-09T23:38:24.472Z,5.70
2022-10-09T23:43:30.769Z,6.10
2022-10-09T23:48:36.630Z,5.60
2022-10-09T23:53:42.816Z,5.50
2022-10-09T23:58:50.086Z,5.60
